createdAt,value
2018-08-14T00:00:47.743Z,0.00
2018-08-14T00:02:40.727Z,0.00
2018-08-14T00:03:40.796Z,0.00
2018-08-14T00:05:33.792Z,0.00
2018-08-14T00:06:33.852Z,0.00
2018-08-14T00:08:26.848Z,0.00
2018-08-14T00:09:26.913Z,0.00
2018-08-14T00:11:19.908Z,0.00
2018-08-14T00:12:19.964Z,0.00
2018-08-14T00:14:12.959Z,0.00
2018-08-14T00:15:13.015Z,0.00
2018-08-14T00:17:06.025Z,0.00
2018-08-14T00:18:06.069Z,0.00
2018-08-14T00:19:59.065Z,0.00
2018-08-14T00:20:59.119Z,0.00
2018-08-14T00:22:52.124Z,0.00
2018-08-14T00:23:52.189Z,0.00
2018-08-14T00:25:45.183Z,0.00
2018-08-14T00:26:45.239Z,0.00
2018-08-14T00:28:38.236Z,0.00
2018-08-14T00:29:38.295Z,0.00
2018-08-14T00:31:31.294Z,0.00
2018-08-14T00:32:31.352Z,0.00
2018-08-14T00:34:24.356Z,0.00
2018-08-14T00:35:24.407Z,0.00
2018-08-14T00:37:17.402Z,0.00
2018-08-14T00:38:17.467Z,0.00
2018-08-14T00:40:10.469Z,0.00
2018-08-14T00:41:10.525Z,0.00
2018-08-14T00:43:03.513Z,0.00
2018-08-14T00:44:03.582Z,0.00
2018-08-14T00:45:56.582Z,0.00
2018-08-14T00:46:56.634Z,0.00
2018-08-14T00:48:49.636Z,0.00
2018-08-14T00:49:49.700Z,0.00
2018-08-14T00:51:42.697Z,0.00
2018-08-14T00:52:42.752Z,0.00
2018-08-14T00:54:35.756Z,0.00
2018-08-14T00:55:35.813Z,0.00
2018-08-14T00:57:28.815Z,0.00
2018-08-14T00:58:28.863Z,0.00
2018-08-14T01:00:21.862Z,0.00
2018-08-14T01:01:21.926Z,0.00
2018-08-14T01:03:14.935Z,0.00
2018-08-14T01:04:14.999Z,0.00
2018-08-14T01:06:08.012Z,0.00
2018-08-14T01:07:08.073Z,0.00
2018-08-14T01:09:01.064Z,0.00
2018-08-14T01:10:01.121Z,0.00
2018-08-14T01:11:54.115Z,0.00
2018-08-14T01:12:54.171Z,0.00
2018-08-14T01:14:47.164Z,0.00
2018-08-14T01:15:47.220Z,0.00
2018-08-14T01:17:40.209Z,0.00
2018-08-14T01:18:40.272Z,0.00
2018-08-14T01:20:33.271Z,0.00
2018-08-14T01:21:33.326Z,0.00
2018-08-14T01:23:26.316Z,0.00
2018-08-14T01:24:26.381Z,0.00
2018-08-14T01:26:19.419Z,0.00
2018-08-14T01:27:19.439Z,0.00
2018-08-14T01:29:12.437Z,0.00
2018-08-14T01:30:12.505Z,0.00
2018-08-14T01:32:05.496Z,0.00
2018-08-14T01:33:05.550Z,0.00
2018-08-14T01:34:58.551Z,0.00
2018-08-14T01:35:58.618Z,0.00
2018-08-14T01:37:51.600Z,0.00
2018-08-14T01:38:51.662Z,0.00
2018-08-14T01:40:44.670Z,0.00
2018-08-14T01:41:44.736Z,0.00
2018-08-14T01:43:37.731Z,0.00
2018-08-14T01:44:37.794Z,0.00
2018-08-14T01:46:30.787Z,0.00
2018-08-14T01:47:30.896Z,0.00
2018-08-14T01:49:23.834Z,0.00
2018-08-14T01:50:23.895Z,0.00
2018-08-14T01:52:16.896Z,0.00
2018-08-14T01:53:16.951Z,0.00
2018-08-14T01:55:09.948Z,0.00
2018-08-14T01:56:10.005Z,0.00
2018-08-14T01:58:02.993Z,0.00
2018-08-14T01:59:03.055Z,0.00
2018-08-14T02:00:56.049Z,0.00
2018-08-14T02:01:56.107Z,0.00
2018-08-14T02:03:49.098Z,0.00
2018-08-14T02:04:49.163Z,0.00
2018-08-14T02:06:42.156Z,0.00
2018-08-14T02:07:42.212Z,0.00
2018-08-14T02:09:35.211Z,0.00
2018-08-14T02:10:35.276Z,0.00
2018-08-14T02:12:28.280Z,0.00
2018-08-14T02:13:28.325Z,0.00
2018-08-14T02:15:21.337Z,0.00
2018-08-14T02:16:21.381Z,0.00
2018-08-14T02:18:14.374Z,0.00
2018-08-14T02:19:14.441Z,0.00
2018-08-14T02:21:07.441Z,0.00
2018-08-14T02:22:07.487Z,0.00
2018-08-14T02:24:00.488Z,0.00
2018-08-14T02:25:00.545Z,0.00
2018-08-14T02:26:53.541Z,0.00
2018-08-14T02:27:53.603Z,0.00
2018-08-14T02:29:46.590Z,0.00
2018-08-14T02:30:46.652Z,0.00
2018-08-14T02:32:39.656Z,0.00
2018-08-14T02:33:39.711Z,0.00
2018-08-14T02:35:32.709Z,0.00
2018-08-14T02:36:32.775Z,0.00
2018-08-14T02:38:25.778Z,0.00
2018-08-14T02:39:25.839Z,0.00
2018-08-14T02:41:18.837Z,0.00
2018-08-14T02:42:18.899Z,0.00
2018-08-14T02:44:11.886Z,0.00
2018-08-14T02:45:11.946Z,0.00
2018-08-14T02:47:04.949Z,0.00
2018-08-14T02:48:05.015Z,0.00
2018-08-14T02:49:57.993Z,0.00
2018-08-14T02:50:58.055Z,0.00
2018-08-14T02:52:51.058Z,0.00
2018-08-14T02:53:51.111Z,0.00
2018-08-14T02:55:44.616Z,0.00
2018-08-14T02:56:44.672Z,0.00
2018-08-14T02:58:37.657Z,0.00
2018-08-14T02:59:37.723Z,0.00
2018-08-14T03:01:30.715Z,0.00
2018-08-14T03:02:30.779Z,0.00
2018-08-14T03:04:23.771Z,0.00
2018-08-14T03:05:23.823Z,0.00
2018-08-14T03:07:16.822Z,0.00
2018-08-14T03:08:16.876Z,0.00
2018-08-14T03:10:09.873Z,0.00
2018-08-14T03:11:09.937Z,0.00
2018-08-14T03:13:02.935Z,0.00
2018-08-14T03:14:02.990Z,0.00
2018-08-14T03:15:56.494Z,0.00
2018-08-14T03:16:56.548Z,0.00
2018-08-14T03:18:49.539Z,0.00
2018-08-14T03:19:49.688Z,0.00
2018-08-14T03:21:42.622Z,0.00
2018-08-14T03:22:42.657Z,0.00
2018-08-14T03:24:35.650Z,0.00
2018-08-14T03:25:35.718Z,0.00
2018-08-14T03:27:28.724Z,0.00
2018-08-14T03:28:28.781Z,0.00
2018-08-14T03:30:21.829Z,0.00
2018-08-14T03:31:21.835Z,0.00
2018-08-14T03:33:14.838Z,0.00
2018-08-14T03:34:14.898Z,0.00
2018-08-14T03:36:07.895Z,0.00
2018-08-14T03:37:07.950Z,0.00
2018-08-14T03:39:00.941Z,0.00
2018-08-14T03:40:01.000Z,0.00
2018-08-14T03:41:53.999Z,0.00
2018-08-14T03:42:54.059Z,0.00
2018-08-14T03:44:47.051Z,0.00
2018-08-14T03:45:47.108Z,0.00
2018-08-14T03:47:40.109Z,0.00
2018-08-14T03:48:40.164Z,0.00
2018-08-14T03:50:33.160Z,0.00
2018-08-14T03:51:33.220Z,0.00
2018-08-14T03:53:26.225Z,0.00
2018-08-14T03:54:26.283Z,0.00
2018-08-14T03:56:19.280Z,0.00
2018-08-14T03:57:19.335Z,0.00
2018-08-14T03:59:12.327Z,0.00
2018-08-14T04:00:12.392Z,0.00
2018-08-14T04:02:05.408Z,0.00
2018-08-14T04:03:05.454Z,0.00
2018-08-14T04:04:58.450Z,0.00
2018-08-14T04:05:58.538Z,0.00
2018-08-14T04:07:51.528Z,0.00
2018-08-14T04:08:51.588Z,0.00
2018-08-14T04:10:44.575Z,0.00
2018-08-14T04:11:44.640Z,0.00
2018-08-14T04:13:37.679Z,0.00
2018-08-14T04:14:37.697Z,0.00
2018-08-14T04:16:30.691Z,0.00
2018-08-14T04:17:30.751Z,0.00
2018-08-14T04:19:23.739Z,0.00
2018-08-14T04:20:23.807Z,0.00
2018-08-14T04:22:16.801Z,0.00
2018-08-14T04:23:16.857Z,0.00
2018-08-14T04:25:09.845Z,0.00
2018-08-14T04:26:09.913Z,0.00
2018-08-14T04:28:02.914Z,0.00
2018-08-14T04:29:02.972Z,0.00
2018-08-14T04:30:55.960Z,0.00
2018-08-14T04:31:56.029Z,0.00
2018-08-14T04:33:49.528Z,0.00
2018-08-14T04:34:49.587Z,0.00
2018-08-14T04:36:42.581Z,0.00
2018-08-14T04:37:42.639Z,0.00
2018-08-14T04:39:35.626Z,0.00
2018-08-14T04:40:35.691Z,0.00
2018-08-14T04:42:28.691Z,0.00
2018-08-14T04:43:28.746Z,0.00
2018-08-14T04:45:21.739Z,0.00
2018-08-14T04:46:21.803Z,0.00
2018-08-14T04:48:14.795Z,0.00
2018-08-14T04:49:14.857Z,0.00
2018-08-14T04:51:07.843Z,0.00
2018-08-14T04:52:07.905Z,0.00
2018-08-14T04:54:01.064Z,0.00
2018-08-14T04:55:00.980Z,0.00
2018-08-14T04:56:53.965Z,0.00
2018-08-14T04:57:54.023Z,0.00
2018-08-14T04:59:47.008Z,0.00
2018-08-14T05:00:47.076Z,0.00
2018-08-14T05:02:40.073Z,0.00
2018-08-14T05:03:40.124Z,0.00
2018-08-14T05:05:33.127Z,0.00
2018-08-14T05:06:33.186Z,0.00
2018-08-14T05:08:26.184Z,0.00
2018-08-14T05:09:26.240Z,0.00
2018-08-14T05:11:19.231Z,0.00
2018-08-14T05:12:19.292Z,0.00
2018-08-14T05:14:12.296Z,0.00
2018-08-14T05:15:12.348Z,0.00
2018-08-14T05:17:05.349Z,0.00
2018-08-14T05:18:05.403Z,0.00
2018-08-14T05:19:58.410Z,0.00
2018-08-14T05:20:58.474Z,0.00
2018-08-14T05:22:51.471Z,0.00
2018-08-14T05:23:51.534Z,0.00
2018-08-14T05:25:44.570Z,0.00
2018-08-14T05:26:44.580Z,0.00
2018-08-14T05:28:37.584Z,0.00
2018-08-14T05:29:37.639Z,0.00
2018-08-14T05:31:30.629Z,0.00
2018-08-14T05:32:30.693Z,0.00
2018-08-14T05:34:23.690Z,0.00
2018-08-14T05:35:23.749Z,0.00
2018-08-14T05:37:16.742Z,0.00
2018-08-14T05:38:16.802Z,0.00
2018-08-14T05:40:09.786Z,0.00
2018-08-14T05:41:09.870Z,0.00
2018-08-14T05:43:02.849Z,0.00
2018-08-14T05:44:02.899Z,0.00
2018-08-14T05:45:55.888Z,0.00
2018-08-14T05:46:55.950Z,0.00
2018-08-14T05:48:48.953Z,0.00
2018-08-14T05:49:49.006Z,0.00
2018-08-14T05:51:41.995Z,0.00
2018-08-14T05:52:42.059Z,0.00
2018-08-14T05:54:35.052Z,0.00
2018-08-14T05:55:35.110Z,0.00
2018-08-14T05:57:28.108Z,0.00
2018-08-14T05:58:28.159Z,0.00
2018-08-14T06:00:21.149Z,0.00
2018-08-14T06:01:21.214Z,0.00
2018-08-14T06:03:14.209Z,0.00
2018-08-14T06:04:14.265Z,0.00
2018-08-14T06:06:07.256Z,0.00
2018-08-14T06:07:07.316Z,0.00
2018-08-14T06:09:00.314Z,0.00
2018-08-14T06:10:00.373Z,0.00
2018-08-14T06:11:53.364Z,0.00
2018-08-14T06:12:53.422Z,0.00
2018-08-14T06:14:46.418Z,0.00
2018-08-14T06:15:46.475Z,0.00
2018-08-14T06:17:39.480Z,0.00
2018-08-14T06:18:39.532Z,0.29
2018-08-14T06:20:32.517Z,0.48
2018-08-14T06:21:32.573Z,0.57
2018-08-14T06:23:25.580Z,1.34
2018-08-14T06:24:25.640Z,1.34
2018-08-14T06:26:18.629Z,1.34
2018-08-14T06:27:18.693Z,1.25
2018-08-14T06:29:11.690Z,0.86
2018-08-14T06:30:11.748Z,0.76
2018-08-14T06:32:04.746Z,0.96
2018-08-14T06:33:04.799Z,0.76
2018-08-14T06:34:57.802Z,1.06
2018-08-14T06:35:57.856Z,1.15
2018-08-14T06:37:50.873Z,1.06
2018-08-14T06:38:50.933Z,0.67
2018-08-14T06:40:43.929Z,0.76
2018-08-14T06:41:43.985Z,0.38
2018-08-14T06:43:36.981Z,0.48
2018-08-14T06:44:37.040Z,0.57
2018-08-14T06:46:30.030Z,0.57
2018-08-14T06:47:30.091Z,1.15
2018-08-14T06:49:23.093Z,1.44
2018-08-14T06:50:23.148Z,1.53
2018-08-14T06:52:16.138Z,1.53
2018-08-14T06:53:16.199Z,3.36
2018-08-14T06:55:09.197Z,5.66
2018-08-14T06:56:09.257Z,6.34
2018-08-14T06:58:02.751Z,7.78
2018-08-14T06:59:02.835Z,8.07
2018-08-14T07:00:55.816Z,7.87
2018-08-14T07:01:55.874Z,7.78
2018-08-14T07:03:48.864Z,9.03
2018-08-14T07:04:48.925Z,9.03
2018-08-14T07:06:41.912Z,10.00
2018-08-14T07:07:41.975Z,10.38
2018-08-14T07:09:34.979Z,11.24
2018-08-14T07:10:35.031Z,12.02
2018-08-14T07:12:28.021Z,12.88
2018-08-14T07:13:28.083Z,14.04
2018-08-14T07:15:21.080Z,17.33
2018-08-14T07:16:21.138Z,17.23
2018-08-14T07:18:14.140Z,17.33
2018-08-14T07:19:14.197Z,17.13
2018-08-14T07:21:07.196Z,17.03
2018-08-14T07:22:07.253Z,16.74
2018-08-14T07:24:00.253Z,17.22
2018-08-14T07:25:00.309Z,17.32
2018-08-14T07:26:53.308Z,17.80
2018-08-14T07:27:53.367Z,18.48
2018-08-14T07:29:46.369Z,19.34
2018-08-14T07:30:46.430Z,20.40
2018-08-14T07:32:39.419Z,20.32
2018-08-14T07:33:39.512Z,19.36
2018-08-14T07:35:32.482Z,20.89
2018-08-14T07:36:32.542Z,20.50
2018-08-14T07:38:25.535Z,20.31
2018-08-14T07:39:25.604Z,19.83
2018-08-14T07:41:18.622Z,19.45
2018-08-14T07:42:18.655Z,19.92
2018-08-14T07:44:11.675Z,19.45
2018-08-14T07:45:11.714Z,19.83
2018-08-14T07:47:04.706Z,19.54
2018-08-14T07:48:04.771Z,19.93
2018-08-14T07:49:57.821Z,19.73
2018-08-14T07:50:57.831Z,19.73
2018-08-14T07:52:50.829Z,19.92
2018-08-14T07:53:50.894Z,19.25
2018-08-14T07:55:43.901Z,20.02
2018-08-14T07:56:43.963Z,20.02
2018-08-14T07:58:36.957Z,21.48
2018-08-14T07:59:37.019Z,20.80
2018-08-14T08:01:30.022Z,24.87
2018-08-14T08:02:30.080Z,26.33
2018-08-14T08:04:23.080Z,25.37
2018-08-14T08:05:23.140Z,28.34
2018-08-14T08:07:16.133Z,25.35
2018-08-14T08:08:16.199Z,28.34
2018-08-14T08:10:09.220Z,25.35
2018-08-14T08:11:09.285Z,25.73
2018-08-14T08:13:02.279Z,21.97
2018-08-14T08:14:02.343Z,21.38
2018-08-14T08:15:55.332Z,20.61
2018-08-14T08:16:55.391Z,20.79
2018-08-14T08:18:48.387Z,20.72
2018-08-14T08:19:48.451Z,24.09
2018-08-14T08:21:41.466Z,25.45
2018-08-14T08:22:41.527Z,26.81
2018-08-14T08:24:34.548Z,27.98
2018-08-14T08:25:34.646Z,27.12
2018-08-14T08:27:27.584Z,31.07
2018-08-14T08:28:27.650Z,31.85
2018-08-14T08:30:20.653Z,57.86
2018-08-14T08:31:20.737Z,69.92
2018-08-14T08:33:13.707Z,78.23
2018-08-14T08:34:13.793Z,74.43
2018-08-14T08:36:06.782Z,79.93
2018-08-14T08:37:06.847Z,81.70
2018-08-14T08:38:59.845Z,79.49
2018-08-14T08:39:59.912Z,78.38
2018-08-14T08:41:52.932Z,76.76
2018-08-14T08:42:52.983Z,75.21
2018-08-14T08:44:45.993Z,75.37
2018-08-14T08:45:46.054Z,73.49
2018-08-14T08:47:39.061Z,72.81
2018-08-14T08:48:39.136Z,61.50
2018-08-14T08:50:32.139Z,60.89
2018-08-14T08:51:32.249Z,68.72
2018-08-14T08:53:25.227Z,64.72
2018-08-14T08:54:25.297Z,67.43
2018-08-14T08:56:18.302Z,61.05
2018-08-14T08:57:18.365Z,59.89
2018-08-14T08:59:11.366Z,65.40
2018-08-14T09:00:11.434Z,64.92
2018-08-14T09:02:04.443Z,63.53
2018-08-14T09:03:04.503Z,62.60
2018-08-14T09:04:57.505Z,63.53
2018-08-14T09:05:57.568Z,60.13
2018-08-14T09:07:50.566Z,60.51
2018-08-14T09:08:50.636Z,57.62
2018-08-14T09:10:43.638Z,60.41
2018-08-14T09:11:43.702Z,64.28
2018-08-14T09:13:36.704Z,59.38
2018-08-14T09:14:36.774Z,68.84
2018-08-14T09:16:29.773Z,71.97
2018-08-14T09:17:29.835Z,72.68
2018-08-14T09:19:22.839Z,70.07
2018-08-14T09:20:22.903Z,77.50
2018-08-14T09:22:15.909Z,78.71
2018-08-14T09:23:15.969Z,77.65
2018-08-14T09:25:08.993Z,76.35
2018-08-14T09:26:09.037Z,71.62
2018-08-14T09:28:02.033Z,72.84
2018-08-14T09:29:02.098Z,71.36
2018-08-14T09:30:55.121Z,69.32
2018-08-14T09:31:55.181Z,68.26
2018-08-14T09:33:48.186Z,74.25
2018-08-14T09:34:48.251Z,66.27
2018-08-14T09:36:41.253Z,78.48
2018-08-14T09:37:41.315Z,79.24
2018-08-14T09:39:34.323Z,81.37
2018-08-14T09:40:34.390Z,79.82
2018-08-14T09:42:27.394Z,80.20
2018-08-14T09:43:27.454Z,78.56
2018-08-14T09:45:20.456Z,79.33
2018-08-14T09:46:20.520Z,77.84
2018-08-14T09:48:13.524Z,80.94
2018-08-14T09:49:13.582Z,79.97
2018-08-14T09:51:06.590Z,76.01
2018-08-14T09:52:06.653Z,80.07
2018-08-14T09:53:59.722Z,80.01
2018-08-14T09:54:59.722Z,79.04
2018-08-14T09:56:52.732Z,81.95
2018-08-14T09:57:52.791Z,81.27
2018-08-14T09:59:45.789Z,81.75
2018-08-14T10:00:45.856Z,80.98
2018-08-14T10:02:38.864Z,81.27
2018-08-14T10:03:38.925Z,81.56
2018-08-14T10:05:31.932Z,81.95
2018-08-14T10:06:31.995Z,81.27
2018-08-14T10:08:25.012Z,80.79
2018-08-14T10:09:25.079Z,81.62
2018-08-14T10:11:18.085Z,81.75
2018-08-14T10:12:18.147Z,81.04
2018-08-14T10:14:11.145Z,81.23
2018-08-14T10:15:11.214Z,80.26
2018-08-14T10:17:04.239Z,80.51
2018-08-14T10:18:04.279Z,79.45
2018-08-14T10:19:57.317Z,80.95
2018-08-14T10:20:57.425Z,79.22
2018-08-14T10:22:50.355Z,78.83
2018-08-14T10:23:50.415Z,81.05
2018-08-14T10:25:43.420Z,80.76
2018-08-14T10:26:43.528Z,81.15
2018-08-14T10:28:36.592Z,79.89
2018-08-14T10:29:36.544Z,80.76
2018-08-14T10:31:29.549Z,80.38
2018-08-14T10:32:29.610Z,80.86
2018-08-14T10:34:22.609Z,80.66
2018-08-14T10:35:22.678Z,80.12
2018-08-14T10:37:15.682Z,80.12
2018-08-14T10:38:15.741Z,81.38
2018-08-14T10:40:08.841Z,80.16
2018-08-14T10:41:08.811Z,79.78
2018-08-14T10:43:01.809Z,81.71
2018-08-14T10:44:01.868Z,81.23
2018-08-14T10:45:54.873Z,81.17
2018-08-14T10:46:54.936Z,81.07
2018-08-14T10:48:47.945Z,80.19
2018-08-14T10:49:47.997Z,81.30
2018-08-14T10:51:41.026Z,81.45
2018-08-14T10:52:41.089Z,80.24
2018-08-14T10:54:34.086Z,80.88
2018-08-14T10:55:34.150Z,80.98
2018-08-14T10:57:27.160Z,81.04
2018-08-14T10:58:27.230Z,80.26
2018-08-14T11:00:20.219Z,80.65
2018-08-14T11:01:20.306Z,81.09
2018-08-14T11:03:13.297Z,79.41
2018-08-14T11:04:13.383Z,80.95
2018-08-14T11:06:06.385Z,79.80
2018-08-14T11:07:06.446Z,79.80
2018-08-14T11:08:59.449Z,80.76
2018-08-14T11:09:59.516Z,80.57
2018-08-14T11:11:52.513Z,81.15
2018-08-14T11:12:52.585Z,79.70
2018-08-14T11:14:45.578Z,81.63
2018-08-14T11:15:45.641Z,80.95
2018-08-14T11:17:38.654Z,81.67
2018-08-14T11:18:38.714Z,81.57
2018-08-14T11:20:31.714Z,81.04
2018-08-14T11:21:31.778Z,81.32
2018-08-14T11:23:24.785Z,81.17
2018-08-14T11:24:24.852Z,80.69
2018-08-14T11:26:17.859Z,79.20
2018-08-14T11:27:17.915Z,80.79
2018-08-14T11:29:10.918Z,80.46
2018-08-14T11:30:10.979Z,80.55
2018-08-14T11:32:03.982Z,81.32
2018-08-14T11:33:04.044Z,80.84
2018-08-14T11:34:57.042Z,80.65
2018-08-14T11:35:57.109Z,80.59
2018-08-14T11:37:50.109Z,80.88
2018-08-14T11:38:50.174Z,80.20
2018-08-14T11:40:43.172Z,80.01
2018-08-14T11:41:43.239Z,80.73
2018-08-14T11:43:36.245Z,79.47
2018-08-14T11:44:36.303Z,80.73
2018-08-14T11:46:29.314Z,81.70
2018-08-14T11:47:29.370Z,80.54
2018-08-14T11:49:22.378Z,79.91
2018-08-14T11:50:22.440Z,78.94
2018-08-14T11:52:15.443Z,80.49
2018-08-14T11:53:15.504Z,79.82
2018-08-14T11:55:08.510Z,79.62
2018-08-14T11:56:08.569Z,78.85
2018-08-14T11:58:01.585Z,79.66
2018-08-14T11:59:01.646Z,80.09
2018-08-14T12:00:54.654Z,77.03
2018-08-14T12:01:54.753Z,74.51
2018-08-14T12:03:47.734Z,75.44
2018-08-14T12:04:47.786Z,76.41
2018-08-14T12:06:40.785Z,77.73
2018-08-14T12:07:40.853Z,77.30
2018-08-14T12:09:33.862Z,78.17
2018-08-14T12:10:33.926Z,78.36
2018-08-14T12:12:26.933Z,79.29
2018-08-14T12:13:26.993Z,79.68
2018-08-14T12:15:19.989Z,77.36
2018-08-14T12:16:20.058Z,77.17
2018-08-14T12:18:13.060Z,76.87
2018-08-14T12:19:13.121Z,75.52
2018-08-14T12:21:06.123Z,74.46
2018-08-14T12:22:06.191Z,75.13
2018-08-14T12:23:59.198Z,78.23
2018-08-14T12:24:59.267Z,75.17
2018-08-14T12:26:52.269Z,75.17
2018-08-14T12:27:52.330Z,74.69
2018-08-14T12:29:45.328Z,76.46
2018-08-14T12:30:45.386Z,74.53
2018-08-14T12:32:38.396Z,73.31
2018-08-14T12:33:38.461Z,75.24
2018-08-14T12:35:31.469Z,73.15
2018-08-14T12:36:31.540Z,74.90
2018-08-14T12:38:24.540Z,70.44
2018-08-14T12:39:24.602Z,74.28
2018-08-14T12:41:17.641Z,70.27
2018-08-14T12:42:17.668Z,70.14
2018-08-14T12:44:10.672Z,72.95
2018-08-14T12:45:10.740Z,74.21
2018-08-14T12:47:03.763Z,74.92
2018-08-14T12:48:03.819Z,74.53
2018-08-14T12:49:56.940Z,73.21
2018-08-14T12:50:56.890Z,73.02
2018-08-14T12:52:49.891Z,74.80
2018-08-14T12:53:49.949Z,74.41
2018-08-14T12:55:42.962Z,72.22
2018-08-14T12:56:43.040Z,73.86
2018-08-14T12:58:36.023Z,72.22
2018-08-14T12:59:36.082Z,70.63
2018-08-14T13:01:29.121Z,72.09
2018-08-14T13:02:29.147Z,71.28
2018-08-14T13:04:22.153Z,73.21
2018-08-14T13:05:22.213Z,73.99
2018-08-14T13:07:15.220Z,73.99
2018-08-14T13:08:15.279Z,77.09
2018-08-14T13:10:08.284Z,75.40
2018-08-14T13:11:08.348Z,74.96
2018-08-14T13:13:01.349Z,73.11
2018-08-14T13:14:01.414Z,74.02
2018-08-14T13:15:54.414Z,72.38
2018-08-14T13:16:54.478Z,68.60
2018-08-14T13:18:47.476Z,70.83
2018-08-14T13:19:47.543Z,71.60
2018-08-14T13:21:40.545Z,69.02
2018-08-14T13:22:40.614Z,68.05
2018-08-14T13:24:33.648Z,67.95
2018-08-14T13:25:33.712Z,68.82
2018-08-14T13:27:26.714Z,67.50
2018-08-14T13:28:26.782Z,70.31
2018-08-14T13:30:19.788Z,67.69
2018-08-14T13:31:19.850Z,69.73
2018-08-14T13:33:12.909Z,69.31
2018-08-14T13:34:12.916Z,69.02
2018-08-14T13:36:05.916Z,70.09
2018-08-14T13:37:05.985Z,68.15
2018-08-14T13:38:58.997Z,68.54
2018-08-14T13:39:59.063Z,68.21
2018-08-14T13:41:52.060Z,71.02
2018-08-14T13:42:52.132Z,70.05
2018-08-14T13:44:45.133Z,71.41
2018-08-14T13:45:45.193Z,70.15
2018-08-14T13:47:38.189Z,68.37
2018-08-14T13:48:38.260Z,70.40
2018-08-14T13:50:31.264Z,69.92
2018-08-14T13:51:31.326Z,71.95
2018-08-14T13:53:24.395Z,72.15
2018-08-14T13:54:24.391Z,73.54
2018-08-14T13:56:17.402Z,69.82
2018-08-14T13:57:17.458Z,70.89
2018-08-14T13:59:10.477Z,68.85
2018-08-14T14:00:10.521Z,70.31
2018-08-14T14:02:03.544Z,67.92
2018-08-14T14:03:03.608Z,68.21
2018-08-14T14:04:56.613Z,70.96
2018-08-14T14:05:56.682Z,68.05
2018-08-14T14:07:49.678Z,67.37
2018-08-14T14:08:49.743Z,68.54
2018-08-14T14:10:42.751Z,67.79
2018-08-14T14:11:42.813Z,68.37
2018-08-14T14:13:35.829Z,66.92
2018-08-14T14:14:35.873Z,67.60
2018-08-14T14:16:28.887Z,67.66
2018-08-14T14:17:28.946Z,67.66
2018-08-14T14:19:21.950Z,64.62
2018-08-14T14:20:22.014Z,65.66
2018-08-14T14:22:15.027Z,67.21
2018-08-14T14:23:15.089Z,67.88
2018-08-14T14:25:08.084Z,70.79
2018-08-14T14:26:08.147Z,69.82
2018-08-14T14:28:01.149Z,70.11
2018-08-14T14:29:01.212Z,69.92
2018-08-14T14:30:54.215Z,70.70
2018-08-14T14:31:54.277Z,71.56
2018-08-14T14:33:47.283Z,71.28
2018-08-14T14:34:47.343Z,69.92
2018-08-14T14:36:40.351Z,71.89
2018-08-14T14:37:40.413Z,71.60
2018-08-14T14:39:33.429Z,70.83
2018-08-14T14:40:33.488Z,70.34
2018-08-14T14:42:26.484Z,68.21
2018-08-14T14:43:26.598Z,66.11
2018-08-14T14:45:19.572Z,66.08
2018-08-14T14:46:19.624Z,67.76
2018-08-14T14:48:12.621Z,70.37
2018-08-14T14:49:12.687Z,69.02
2018-08-14T14:51:05.692Z,68.24
2018-08-14T14:52:05.756Z,68.54
2018-08-14T14:53:59.274Z,65.43
2018-08-14T14:54:59.327Z,68.15
2018-08-14T14:56:52.328Z,65.24
2018-08-14T14:57:52.394Z,66.92
2018-08-14T14:59:45.404Z,65.85
2018-08-14T15:00:45.470Z,67.73
2018-08-14T15:02:38.466Z,64.40
2018-08-14T15:03:38.533Z,64.11
2018-08-14T15:05:31.542Z,67.99
2018-08-14T15:06:31.597Z,63.62
2018-08-14T15:08:24.607Z,64.95
2018-08-14T15:09:24.671Z,64.95
2018-08-14T15:11:17.679Z,65.63
2018-08-14T15:12:17.739Z,66.50
2018-08-14T15:14:10.827Z,63.98
2018-08-14T15:15:10.804Z,65.08
2018-08-14T15:17:03.807Z,66.14
2018-08-14T15:18:03.872Z,63.82
2018-08-14T15:19:56.949Z,61.17
2018-08-14T15:20:56.936Z,61.55
2018-08-14T15:22:49.941Z,61.55
2018-08-14T15:23:50.005Z,64.85
2018-08-14T15:25:43.003Z,64.65
2018-08-14T15:26:43.073Z,62.23
2018-08-14T15:28:36.098Z,63.56
2018-08-14T15:29:36.141Z,63.56
2018-08-14T15:31:29.154Z,66.17
2018-08-14T15:32:29.216Z,65.56
2018-08-14T15:34:22.233Z,65.56
2018-08-14T15:35:22.283Z,65.85
2018-08-14T15:37:15.286Z,67.46
2018-08-14T15:38:15.355Z,68.15
2018-08-14T15:40:08.360Z,67.76
2018-08-14T15:41:08.428Z,68.73
2018-08-14T15:43:01.484Z,68.53
2018-08-14T15:44:01.507Z,67.08
2018-08-14T15:45:54.532Z,67.95
2018-08-14T15:46:54.591Z,68.05
2018-08-14T15:48:47.593Z,68.18
2018-08-14T15:49:47.938Z,66.63
2018-08-14T15:51:40.661Z,66.34
2018-08-14T15:52:40.722Z,70.01
2018-08-14T15:54:34.232Z,67.60
2018-08-14T15:55:34.294Z,68.95
2018-08-14T15:57:27.301Z,66.05
2018-08-14T15:58:27.362Z,64.30
2018-08-14T16:00:20.363Z,64.01
2018-08-14T16:01:20.425Z,64.20
2018-08-14T16:03:13.425Z,64.79
2018-08-14T16:04:13.491Z,65.95
2018-08-14T16:06:06.497Z,68.27
2018-08-14T16:07:06.558Z,67.88
2018-08-14T16:08:59.553Z,67.46
2018-08-14T16:09:59.621Z,69.01
2018-08-14T16:11:52.631Z,67.66
2018-08-14T16:12:52.686Z,67.85
2018-08-14T16:14:45.709Z,68.91
2018-08-14T16:15:45.771Z,68.91
2018-08-14T16:17:38.780Z,69.05
2018-08-14T16:18:38.839Z,68.95
2018-08-14T16:20:31.842Z,68.66
2018-08-14T16:21:31.922Z,70.21
2018-08-14T16:23:24.901Z,68.95
2018-08-14T16:24:24.970Z,69.24
2018-08-14T16:26:17.991Z,69.34
2018-08-14T16:27:18.064Z,69.82
2018-08-14T16:29:11.057Z,68.95
2018-08-14T16:30:11.124Z,69.63
2018-08-14T16:32:04.136Z,69.15
2018-08-14T16:33:04.207Z,68.85
2018-08-14T16:34:57.197Z,70.01
2018-08-14T16:35:57.261Z,70.18
2018-08-14T16:37:50.265Z,70.21
2018-08-14T16:38:50.330Z,69.82
2018-08-14T16:40:43.335Z,71.56
2018-08-14T16:41:43.391Z,71.66
2018-08-14T16:43:36.389Z,69.82
2018-08-14T16:44:36.458Z,68.95
2018-08-14T16:46:29.475Z,72.40
2018-08-14T16:47:29.523Z,69.89
2018-08-14T16:49:22.519Z,71.62
2018-08-14T16:50:22.587Z,71.62
2018-08-14T16:52:15.620Z,70.37
2018-08-14T16:53:15.666Z,72.02
2018-08-14T16:55:08.670Z,71.04
2018-08-14T16:56:08.731Z,70.56
2018-08-14T16:58:01.733Z,70.95
2018-08-14T16:59:01.797Z,70.95
2018-08-14T17:00:54.801Z,71.44
2018-08-14T17:01:54.860Z,71.14
2018-08-14T17:03:47.887Z,72.17
2018-08-14T17:04:47.954Z,72.66
2018-08-14T17:06:40.958Z,72.08
2018-08-14T17:07:41.049Z,71.78
2018-08-14T17:09:34.013Z,71.88
2018-08-14T17:10:34.084Z,72.56
2018-08-14T17:12:27.585Z,72.95
2018-08-14T17:13:27.643Z,71.78
2018-08-14T17:15:20.671Z,73.14
2018-08-14T17:16:20.706Z,73.63
2018-08-14T17:18:13.717Z,73.78
2018-08-14T17:19:13.773Z,72.72
2018-08-14T17:21:06.782Z,73.78
2018-08-14T17:22:06.841Z,73.39
2018-08-14T17:23:59.846Z,74.36
2018-08-14T17:24:59.914Z,74.32
2018-08-14T17:26:52.918Z,74.52
2018-08-14T17:27:52.982Z,75.10
2018-08-14T17:29:45.991Z,75.68
2018-08-14T17:30:46.041Z,75.78
2018-08-14T17:32:39.090Z,75.20
2018-08-14T17:33:39.130Z,75.29
2018-08-14T17:35:32.134Z,75.29
2018-08-14T17:36:32.196Z,75.00
2018-08-14T17:38:25.240Z,75.10
2018-08-14T17:39:25.279Z,75.10
2018-08-14T17:41:18.272Z,76.35
2018-08-14T17:42:18.332Z,76.06
2018-08-14T17:44:11.327Z,76.06
2018-08-14T17:45:11.419Z,75.87
2018-08-14T17:47:04.403Z,76.06
2018-08-14T17:48:04.477Z,76.55
2018-08-14T17:49:57.478Z,77.22
2018-08-14T17:50:57.535Z,77.42
2018-08-14T17:52:50.572Z,77.28
2018-08-14T17:53:50.602Z,77.38
2018-08-14T17:55:43.620Z,78.06
2018-08-14T17:56:43.675Z,77.76
2018-08-14T17:58:36.671Z,78.64
2018-08-14T17:59:36.737Z,78.73
2018-08-14T18:01:29.745Z,78.54
2018-08-14T18:02:29.807Z,78.44
2018-08-14T18:04:22.805Z,78.25
2018-08-14T18:05:22.871Z,78.34
2018-08-14T18:07:15.872Z,78.73
2018-08-14T18:08:15.929Z,78.92
2018-08-14T18:10:08.935Z,79.31
2018-08-14T18:11:08.997Z,79.22
2018-08-14T18:13:02.002Z,79.37
2018-08-14T18:14:02.062Z,78.99
2018-08-14T18:15:55.064Z,79.80
2018-08-14T18:16:55.121Z,79.75
2018-08-14T18:18:48.134Z,79.66
2018-08-14T18:19:48.190Z,79.22
2018-08-14T18:21:41.187Z,79.37
2018-08-14T18:22:41.252Z,79.37
2018-08-14T18:24:34.241Z,79.17
2018-08-14T18:25:34.308Z,79.47
2018-08-14T18:27:27.309Z,80.14
2018-08-14T18:28:27.372Z,79.75
2018-08-14T18:30:20.374Z,80.05
2018-08-14T18:31:20.436Z,80.14
2018-08-14T18:33:13.508Z,80.05
2018-08-14T18:34:13.504Z,80.14
2018-08-14T18:36:06.517Z,79.95
2018-08-14T18:37:06.575Z,79.95
2018-08-14T18:38:59.581Z,80.24
2018-08-14T18:39:59.636Z,80.20
2018-08-14T18:41:52.638Z,80.05
2018-08-14T18:42:52.703Z,80.00
2018-08-14T18:44:45.717Z,80.30
2018-08-14T18:45:45.762Z,80.68
2018-08-14T18:47:38.771Z,80.20
2018-08-14T18:48:38.823Z,80.00